KEWR 221945Z 2220/2324 32005KT P6SM FEW250
From batch tds/tafs/production/2024/4/22/h20_m00_tafs.cache.xml.gz
Issued (27 minutes ago)
Forecasts KEWR 221945Z 2220/2324 32005KT P6SM FEW250
FM230100 VRB03KT P6SM SKC
FM231300 19008KT P6SM FEW250
FM231600 18011G18KT P6SM SCT250
KHPN 221945Z 2220/2318 31008KT P6SM FEW250
From batch tds/tafs/production/2024/4/22/h20_m00_tafs.cache.xml.gz
Issued (27 minutes ago)
Forecasts KHPN 221945Z 2220/2318 31008KT P6SM FEW250
FM230000 VRB02KT P6SM SKC
FM231500 17008KT P6SM SCT250 AMD NOT SKED
KTEB 221945Z 2220/2324 33005KT P6SM FEW250
From batch tds/tafs/production/2024/4/22/h20_m00_tafs.cache.xml.gz
Issued (27 minutes ago)
Forecasts KTEB 221945Z 2220/2324 33005KT P6SM FEW250
FM230100 VRB02KT P6SM SKC
FM231300 19008KT P6SM FEW250
FM231600 18010G17KT P6SM SCT250
KSWF 221945Z 2220/2324 27009KT P6SM FEW250
From batch tds/tafs/production/2024/4/22/h20_m00_tafs.cache.xml.gz
Issued (27 minutes ago)
Forecasts KSWF 221945Z 2220/2324 27009KT P6SM FEW250
FM230000 VRB03KT P6SM SKC
FM231300 22008KT P6SM FEW250
FM231600 21011G17KT P6SM SCT250 AMD NOT SKED
KISP 221945Z 2220/2318 33010G20KT P6SM FEW050 FEW250
From batch tds/tafs/production/2024/4/22/h20_m00_tafs.cache.xml.gz
Issued (27 minutes ago)
Forecasts KISP 221945Z 2220/2318 33010G20KT P6SM FEW050 FEW250
FM222200 20007KT P6SM FEW250
FM230100 VRB02KT P6SM SKC
FM231300 18010KT P6SM SCT250
KGON 221945Z 2220/2318 23010KT P6SM FEW250
From batch tds/tafs/production/2024/4/22/h20_m00_tafs.cache.xml.gz
Issued (27 minutes ago)
Forecasts KGON 221945Z 2220/2318 23010KT P6SM FEW250
FM230100 VRB02KT P6SM SKC
FM231300 18009KT P6SM FEW250
KBDR 221945Z 2220/2318 22013KT P6SM FEW250
From batch tds/tafs/production/2024/4/22/h20_m00_tafs.cache.xml.gz
Issued (27 minutes ago)
Forecasts KBDR 221945Z 2220/2318 22013KT P6SM FEW250
FM230100 VRB03KT P6SM SKC
FM231300 17010KT P6SM SCT250
TAF CYGR 221945Z 2220/2302 29020G30KT P6SM FEW030 RMK NXT FCST BY 231100Z
From batch tds/tafs/production/2024/4/22/h20_m00_tafs.cache.xml.gz
Issued (27 minutes ago)
Forecasts TAF CYGR 221945Z 2220/2302 29020G30KT P6SM FEW030 RMK NXT FCST BY 231100Z
TAF CZBF 221945Z 2220/2303 28018G30KT P6SM FEW040
From batch tds/tafs/production/2024/4/22/h20_m00_tafs.cache.xml.gz
Issued (27 minutes ago)
Forecasts TAF CZBF 221945Z 2220/2303 28018G30KT P6SM FEW040
BECMG 2222/2224 28008KT
BECMG 2301/2303 VRB03KT RMK FCST BASED ON AUTO OBS. NXT FCST BY 230900Z
TAF CYRJ 221945Z 2220/2302 28012G22KT P6SM BKN050
From batch tds/tafs/production/2024/4/22/h20_m00_tafs.cache.xml.gz
Issued (27 minutes ago)
Forecasts TAF CYRJ 221945Z 2220/2302 28012G22KT P6SM BKN050
BECMG 2222/2224 22008KT RMK NXT FCST BY 231200Z
KSBP 221944Z 2220/2318 20004KT P6SM OVC013
From batch tds/tafs/production/2024/4/22/h20_m00_tafs.cache.xml.gz
Issued (28 minutes ago)
Forecasts KSBP 221944Z 2220/2318 20004KT P6SM OVC013
FM222100 VRB03KT P6SM SCT008
FM222200 29010KT P6SM SKC
FM230200 30007KT P6SM OVC008
TAF CYGV 221944Z 2220/2308 26025G40KT P6SM BKN050
From batch tds/tafs/production/2024/4/22/h20_m00_tafs.cache.xml.gz
Issued (28 minutes ago)
Forecasts TAF CYGV 221944Z 2220/2308 26025G40KT P6SM BKN050
TEMPO 2220/2222 3SM -SHSN BKN030 OVC050
FM230000 28020G32KT P6SM SCT050
FM230600 29018G28KT P6SM SKC
BECMG 2306/2308 28010G20KT RMK FCST BASED ON AUTO OBS. NXT FCST BY 230200Z
KBBG 221944Z 2220/2318 18010G15KT P6SM FEW250
From batch tds/tafs/production/2024/4/22/h20_m00_tafs.cache.xml.gz
Issued (28 minutes ago)
Forecasts KBBG 221944Z 2220/2318 18010G15KT P6SM FEW250
FM230100 19008KT P6SM SKC
FM230600 17006KT P6SM FEW250 WS020/22040KT
FM231400 20012G22KT P6SM SCT250
TAF CYBC 221943Z 2220/2308 30015G25KT P6SM FEW070
From batch tds/tafs/production/2024/4/22/h20_m00_tafs.cache.xml.gz
Issued (29 minutes ago)
Forecasts TAF CYBC 221943Z 2220/2308 30015G25KT P6SM FEW070
BECMG 2222/2224 29010KT
FM230400 VRB03KT P6SM BKN070
FM230600 07005KT P6SM -SN OVC050 RMK FCST BASED ON AUTO OBS. NXT FCST BY 230200Z
TAF CYGP 221943Z 2220/2308 28020G30KT P6SM SCT070
From batch tds/tafs/production/2024/4/22/h20_m00_tafs.cache.xml.gz
Issued (29 minutes ago)
Forecasts TAF CYGP 221943Z 2220/2308 28020G30KT P6SM SCT070
TEMPO 2220/2224 BKN070
BECMG 2222/2224 28010G20KT
FM230300 28008KT P6SM FEW050 RMK NXT FCST BY 230200Z
TAF CYYY 221943Z 2220/2308 28015G25KT P6SM SCT050
From batch tds/tafs/production/2024/4/22/h20_m00_tafs.cache.xml.gz
Issued (29 minutes ago)
Forecasts TAF CYYY 221943Z 2220/2308 28015G25KT P6SM SCT050
TEMPO 2220/2224 BKN050
FM230000 28010G20KT P6SM FEW060
BECMG 2301/2303 27006KT
FM230400 VRB03KT P6SM BKN060
BECMG 2304/2306 16010KT RMK NXT FCST BY 230200Z
KCMA 221942Z 2220/2318 VRB03KT 5SM BR OVC009
From batch tds/tafs/production/2024/4/22/h20_m00_tafs.cache.xml.gz
Issued (30 minutes ago)
Forecasts KCMA 221942Z 2220/2318 VRB03KT 5SM BR OVC009
FM222100 23008KT P6SM SCT012
FM230200 VRB03KT P6SM OVC012
FM230800 VRB03KT 5SM -DZ BR BKN008 OVC015
KSMO 221941Z 2220/2318 20005KT 4SM HZ OVC015
From batch tds/tafs/production/2024/4/22/h20_m00_tafs.cache.xml.gz
Issued (31 minutes ago)
Forecasts KSMO 221941Z 2220/2318 20005KT 4SM HZ OVC015
FM222100 23010KT P6SM SCT015
FM230200 22005KT P6SM OVC015
FM230800 VRB03KT 5SM -DZ BR BKN008 OVC015
TAF AMD ZBAD 221940Z 2218/2318 36008G16MPS 2800 -SHRA NSC TX23/2307Z TN13/2221Z
From batch tds/tafs/production/2024/4/22/h20_m00_tafs.cache.xml.gz
Issued (32 minutes ago)
Forecasts TAF AMD ZBAD 221940Z 2218/2318 36008G16MPS 2800 -SHRA NSC TX23/2307Z TN13/2221Z
TEMPO 2218/2220 -TSRA FEW010 FEW040CB
BECMG 2221/2222 3000 BR
BECMG 2306/2307 03003MPS
TAF CYAY 221940Z 2220/2308 23012G22KT P6SM SCT015 BKN030
From batch tds/tafs/production/2024/4/22/h20_m00_tafs.cache.xml.gz
Issued (32 minutes ago)
Forecasts TAF CYAY 221940Z 2220/2308 23012G22KT P6SM SCT015 BKN030
TEMPO 2220/2224 4SM -SHRA BR OVC015
BECMG 2220/2222 22020G30KT
FM230000 22025G45KT P6SM BKN030
TEMPO 2300/2308 BKN020 RMK FCST BASED ON AUTO OBS. NXT FCST BY 230200Z
TAF CYDF 221940Z 2220/2308 23015G25KT P6SM SCT020 BKN060
From batch tds/tafs/production/2024/4/22/h20_m00_tafs.cache.xml.gz
Issued (32 minutes ago)
Forecasts TAF CYDF 221940Z 2220/2308 23015G25KT P6SM SCT020 BKN060
TEMPO 2220/2221 P6SM -SHRA BKN020 BKN060
FM222100 23015G25KT P6SM BKN030
TEMPO 2221/2224 P6SM -SHRASN OVC015
FM230000 24018G28KT P6SM BKN030
TEMPO 2300/2308 P6SM -SHSN OVC020 RMK NXT FCST BY 230200Z
TAF CYDP 221940Z 2220/2223 34015KT P6SM FEW012 OVC040
From batch tds/tafs/production/2024/4/22/h20_m00_tafs.cache.xml.gz
Issued (32 minutes ago)
Forecasts TAF CYDP 221940Z 2220/2223 34015KT P6SM FEW012 OVC040
TEMPO 2220/2223 2SM -SN OVC012 RMK NXT FCST BY 231000Z
TAF CZUM 221940Z 2220/2308 29020G35KT 1/2SM -SN BLSN VV012
From batch tds/tafs/production/2024/4/22/h20_m00_tafs.cache.xml.gz
Issued (32 minutes ago)
Forecasts TAF CZUM 221940Z 2220/2308 29020G35KT 1/2SM -SN BLSN VV012
TEMPO 2220/2306 1SM -SN OVC020
FM230600 29015G25KT 1SM -SN VV015 RMK FCST BASED ON AUTO OBS. NXT FCST BY 230200Z
TAF CYMH 221940Z 2220/2303 16012G22KT P6SM FEW050
From batch tds/tafs/production/2024/4/22/h20_m00_tafs.cache.xml.gz
Issued (32 minutes ago)
Forecasts TAF CYMH 221940Z 2220/2303 16012G22KT P6SM FEW050
BECMG 2220/2222 20015G25KT
FM222200 20015G25KT P6SM SCT012 BKN120
TEMPO 2222/2224 P6SM -SHRA BKN012
FM230000 21015G25KT P6SM BKN030
TEMPO 2300/2303 BKN015 RMK FCST BASED ON AUTO OBS. NXT FCST BY 230900Z
TAF CYCA 221940Z 2220/2308 16012G22KT P6SM OVC060
From batch tds/tafs/production/2024/4/22/h20_m00_tafs.cache.xml.gz
Issued (32 minutes ago)
Forecasts TAF CYCA 221940Z 2220/2308 16012G22KT P6SM OVC060
TEMPO 2220/2224 5SM -SHRASN BR OVC040
FM230000 18012KT P6SM BKN015
TEMPO 2300/2308 BKN025
BECMG 2301/2303 21015G35KT RMK FCST BASED ON AUTO OBS. NXT FCST BY 230200Z
talk